sensor_id;sensor_type;location;lat;lon;timestamp;P1;durP1;ratioP1;P2;durP2;ratioP2
11685;SDS011;5899;51.282;6.094;2023-04-07T00:02:35;18.63;;;13.52;;
11685;SDS011;5899;51.282;6.094;2023-04-07T00:05:03;19.67;;;13.43;;
11685;SDS011;5899;51.282;6.094;2023-04-07T00:08:00;19.10;;;13.38;;
11685;SDS011;5899;51.282;6.094;2023-04-07T00:10:41;20.13;;;13.20;;
11685;SDS011;5899;51.282;6.094;2023-04-07T00:15:06;17.27;;;13.20;;
11685;SDS011;5899;51.282;6.094;2023-04-07T00:16:26;19.90;;;14.23;;
11685;SDS011;5899;51.282;6.094;2023-04-07T00:19:15;18.57;;;14.00;;
11685;SDS011;5899;51.282;6.094;2023-04-07T00:21:50;19.63;;;12.80;;
11685;SDS011;5899;51.282;6.094;2023-04-07T00:27:14;18.95;;;12.90;;
11685;SDS011;5899;51.282;6.094;2023-04-07T00:30:17;16.88;;;12.48;;
11685;SDS011;5899;51.282;6.094;2023-04-07T00:33:07;18.13;;;12.75;;
11685;SDS011;5899;51.282;6.094;2023-04-07T00:35:47;17.73;;;12.52;;
11685;SDS011;5899;51.282;6.094;2023-04-07T00:38:59;21.40;;;13.82;;
11685;SDS011;5899;51.282;6.094;2023-04-07T00:44:04;20.13;;;13.20;;
11685;SDS011;5899;51.282;6.094;2023-04-07T00:46:47;18.08;;;12.50;;
11685;SDS011;5899;51.282;6.094;2023-04-07T00:49:26;16.52;;;12.65;;
11685;SDS011;5899;51.282;6.094;2023-04-07T00:52:06;22.57;;;13.83;;
11685;SDS011;5899;51.282;6.094;2023-04-07T00:54:39;20.17;;;13.23;;
11685;SDS011;5899;51.282;6.094;2023-04-07T00:57:11;18.52;;;13.27;;
11685;SDS011;5899;51.282;6.094;2023-04-07T01:02:31;19.60;;;14.00;;
11685;SDS011;5899;51.282;6.094;2023-04-07T01:05:27;19.48;;;13.30;;
11685;SDS011;5899;51.282;6.094;2023-04-07T01:25:16;21.35;;;13.27;;
11685;SDS011;5899;51.282;6.094;2023-04-07T01:27:53;20.03;;;13.00;;
11685;SDS011;5899;51.282;6.094;2023-04-07T01:30:37;20.10;;;12.93;;
11685;SDS011;5899;51.282;6.094;2023-04-07T01:33:12;20.77;;;13.10;;
11685;SDS011;5899;51.282;6.094;2023-04-07T01:35:58;19.55;;;13.43;;
11685;SDS011;5899;51.282;6.094;2023-04-07T01:38:29;20.02;;;13.15;;
11685;SDS011;5899;51.282;6.094;2023-04-07T01:40:57;21.70;;;13.47;;
11685;SDS011;5899;51.282;6.094;2023-04-07T01:43:44;19.40;;;13.07;;
11685;SDS011;5899;51.282;6.094;2023-04-07T01:49:04;21.73;;;13.60;;
11685;SDS011;5899;51.282;6.094;2023-04-07T01:51:55;20.65;;;13.05;;
11685;SDS011;5899;51.282;6.094;2023-04-07T01:55:05;18.23;;;13.00;;
11685;SDS011;5899;51.282;6.094;2023-04-07T01:57:35;22.23;;;13.48;;
11685;SDS011;5899;51.282;6.094;2023-04-07T02:00:27;21.60;;;14.05;;
11685;SDS011;5899;51.282;6.094;2023-04-07T02:03:06;16.67;;;12.05;;
11685;SDS011;5899;51.282;6.094;2023-04-07T02:08:34;17.67;;;12.77;;
11685;SDS011;5899;51.282;6.094;2023-04-07T02:11:03;19.53;;;13.30;;
11685;SDS011;5899;51.282;6.094;2023-04-07T02:13:34;17.75;;;12.20;;
11685;SDS011;5899;51.282;6.094;2023-04-07T02:19:17;18.97;;;13.33;;
11685;SDS011;5899;51.282;6.094;2023-04-07T02:21:56;18.38;;;12.98;;
11685;SDS011;5899;51.282;6.094;2023-04-07T02:24:35;19.07;;;12.87;;
11685;SDS011;5899;51.282;6.094;2023-04-07T02:27:13;19.50;;;13.20;;
11685;SDS011;5899;51.282;6.094;2023-04-07T02:32:18;16.25;;;11.48;;
11685;SDS011;5899;51.282;6.094;2023-04-07T02:35:04;17.83;;;11.95;;
11685;SDS011;5899;51.282;6.094;2023-04-07T02:37:39;14.90;;;10.10;;
11685;SDS011;5899;51.282;6.094;2023-04-07T02:40:29;12.73;;;9.98;;
11685;SDS011;5899;51.282;6.094;2023-04-07T02:43:24;12.77;;;8.73;;
11685;SDS011;5899;51.282;6.094;2023-04-07T02:46:08;12.23;;;8.20;;
11685;SDS011;5899;51.282;6.094;2023-04-07T02:48:45;11.60;;;7.30;;
11685;SDS011;5899;51.282;6.094;2023-04-07T02:51:35;8.45;;;6.45;;
11685;SDS011;5899;51.282;6.094;2023-04-07T02:54:15;9.38;;;5.82;;
11685;SDS011;5899;51.282;6.094;2023-04-07T03:02:56;7.30;;;6.03;;
11685;SDS011;5899;51.282;6.094;2023-04-07T03:05:27;9.88;;;6.53;;
11685;SDS011;5899;51.282;6.094;2023-04-07T03:08:02;9.95;;;6.68;;
11685;SDS011;5899;51.282;6.094;2023-04-07T03:10:30;10.23;;;6.93;;
11685;SDS011;5899;51.282;6.094;2023-04-07T03:13:00;10.80;;;7.15;;
11685;SDS011;5899;51.282;6.094;2023-04-07T03:15:28;9.90;;;7.70;;
11685;SDS011;5899;51.282;6.094;2023-04-07T03:18:08;9.07;;;6.95;;
11685;SDS011;5899;51.282;6.094;2023-04-07T03:20:54;9.20;;;7.53;;
11685;SDS011;5899;51.282;6.094;2023-04-07T03:23:26;10.27;;;7.17;;
11685;SDS011;5899;51.282;6.094;2023-04-07T03:25:55;10.70;;;7.47;;
11685;SDS011;5899;51.282;6.094;2023-04-07T03:29:16;11.63;;;7.78;;
11685;SDS011;5899;51.282;6.094;2023-04-07T03:32:00;10.63;;;7.55;;
11685;SDS011;5899;51.282;6.094;2023-04-07T03:34:32;10.65;;;7.50;;
11685;SDS011;5899;51.282;6.094;2023-04-07T03:37:02;11.23;;;7.38;;
11685;SDS011;5899;51.282;6.094;2023-04-07T03:39:43;10.38;;;7.18;;
11685;SDS011;5899;51.282;6.094;2023-04-07T03:42:14;11.00;;;7.32;;
11685;SDS011;5899;51.282;6.094;2023-04-07T03:44:51;12.48;;;7.00;;
11685;SDS011;5899;51.282;6.094;2023-04-07T03:47:27;9.15;;;7.28;;
11685;SDS011;5899;51.282;6.094;2023-04-07T03:58:53;8.23;;;6.27;;
11685;SDS011;5899;51.282;6.094;2023-04-07T04:01:30;13.93;;;6.32;;
11685;SDS011;5899;51.282;6.094;2023-04-07T04:07:21;6.10;;;4.87;;
11685;SDS011;5899;51.282;6.094;2023-04-07T04:10:09;6.95;;;4.72;;
11685;SDS011;5899;51.282;6.094;2023-04-07T04:12:51;5.65;;;4.47;;
11685;SDS011;5899;51.282;6.094;2023-04-07T04:15:36;5.80;;;4.70;;
11685;SDS011;5899;51.282;6.094;2023-04-07T04:18:09;6.88;;;4.63;;
11685;SDS011;5899;51.282;6.094;2023-04-07T04:21:13;7.33;;;5.30;;
11685;SDS011;5899;51.282;6.094;2023-04-07T04:23:55;6.97;;;4.83;;
11685;SDS011;5899;51.282;6.094;2023-04-07T04:26:38;5.22;;;4.65;;
11685;SDS011;5899;51.282;6.094;2023-04-07T04:29:09;7.70;;;4.80;;
11685;SDS011;5899;51.282;6.094;2023-04-07T04:37:31;6.07;;;4.73;;
11685;SDS011;5899;51.282;6.094;2023-04-07T04:40:07;7.78;;;4.93;;
11685;SDS011;5899;51.282;6.094;2023-04-07T04:42:38;6.50;;;5.00;;
11685;SDS011;5899;51.282;6.094;2023-04-07T04:48:26;7.13;;;5.03;;
11685;SDS011;5899;51.282;6.094;2023-04-07T04:51:23;6.88;;;4.93;;
11685;SDS011;5899;51.282;6.094;2023-04-07T04:56:33;6.20;;;4.72;;
11685;SDS011;5899;51.282;6.094;2023-04-07T04:58:59;6.85;;;4.97;;
11685;SDS011;5899;51.282;6.094;2023-04-07T05:01:35;5.82;;;4.82;;
11685;SDS011;5899;51.282;6.094;2023-04-07T05:04:15;7.97;;;5.40;;
11685;SDS011;5899;51.282;6.094;2023-04-07T05:06:56;7.07;;;4.85;;
11685;SDS011;5899;51.282;6.094;2023-04-07T05:09:31;7.35;;;5.28;;
11685;SDS011;5899;51.282;6.094;2023-04-07T05:14:52;6.72;;;5.60;;
11685;SDS011;5899;51.282;6.094;2023-04-07T05:17:22;7.55;;;5.78;;
11685;SDS011;5899;51.282;6.094;2023-04-07T05:25:40;6.40;;;5.13;;
11685;SDS011;5899;51.282;6.094;2023-04-07T05:28:13;7.33;;;5.40;;
11685;SDS011;5899;51.282;6.094;2023-04-07T05:33:35;7.38;;;5.45;;
11685;SDS011;5899;51.282;6.094;2023-04-07T05:36:09;7.68;;;5.60;;
11685;SDS011;5899;51.282;6.094;2023-04-07T05:41:47;8.43;;;5.50;;
11685;SDS011;5899;51.282;6.094;2023-04-07T05:44:28;8.70;;;5.63;;
11685;SDS011;5899;51.282;6.094;2023-04-07T05:47:04;8.40;;;5.63;;
11685;SDS011;5899;51.282;6.094;2023-04-07T05:49:44;7.00;;;4.80;;
11685;SDS011;5899;51.282;6.094;2023-04-07T05:52:22;6.90;;;5.20;;
11685;SDS011;5899;51.282;6.094;2023-04-07T05:54:49;7.57;;;5.10;;
11685;SDS011;5899;51.282;6.094;2023-04-07T05:57:34;7.78;;;5.53;;
11685;SDS011;5899;51.282;6.094;2023-04-07T06:00:17;7.28;;;5.75;;
11685;SDS011;5899;51.282;6.094;2023-04-07T06:02:55;7.05;;;5.60;;
11685;SDS011;5899;51.282;6.094;2023-04-07T06:05:35;8.25;;;5.15;;
11685;SDS011;5899;51.282;6.094;2023-04-07T06:08:10;6.65;;;5.30;;
11685;SDS011;5899;51.282;6.094;2023-04-07T06:11:04;6.82;;;5.05;;
11685;SDS011;5899;51.282;6.094;2023-04-07T06:14:21;7.15;;;5.57;;
11685;SDS011;5899;51.282;6.094;2023-04-07T06:16:49;8.70;;;5.38;;
11685;SDS011;5899;51.282;6.094;2023-04-07T06:19:32;9.18;;;5.68;;
11685;SDS011;5899;51.282;6.094;2023-04-07T06:22:13;9.15;;;5.70;;
11685;SDS011;5899;51.282;6.094;2023-04-07T06:24:48;7.97;;;5.53;;
11685;SDS011;5899;51.282;6.094;2023-04-07T06:27:17;8.47;;;5.80;;
11685;SDS011;5899;51.282;6.094;2023-04-07T06:30:02;10.02;;;6.03;;
11685;SDS011;5899;51.282;6.094;2023-04-07T06:32:41;8.65;;;6.65;;
11685;SDS011;5899;51.282;6.094;2023-04-07T06:35:15;11.75;;;6.65;;
11685;SDS011;5899;51.282;6.094;2023-04-07T06:40:47;8.85;;;6.78;;
11685;SDS011;5899;51.282;6.094;2023-04-07T06:43:39;9.63;;;6.85;;
11685;SDS011;5899;51.282;6.094;2023-04-07T06:46:16;11.90;;;6.88;;
11685;SDS011;5899;51.282;6.094;2023-04-07T06:48:51;9.83;;;6.97;;
11685;SDS011;5899;51.282;6.094;2023-04-07T06:51:44;11.18;;;6.85;;
11685;SDS011;5899;51.282;6.094;2023-04-07T06:54:14;11.23;;;7.67;;
11685;SDS011;5899;51.282;6.094;2023-04-07T06:56:44;14.68;;;8.05;;
11685;SDS011;5899;51.282;6.094;2023-04-07T06:59:36;10.43;;;7.00;;
11685;SDS011;5899;51.282;6.094;2023-04-07T07:02:02;16.42;;;8.45;;
11685;SDS011;5899;51.282;6.094;2023-04-07T07:04:36;16.33;;;8.80;;
11685;SDS011;5899;51.282;6.094;2023-04-07T07:07:11;10.75;;;7.65;;
11685;SDS011;5899;51.282;6.094;2023-04-07T07:09:40;11.97;;;7.97;;
11685;SDS011;5899;51.282;6.094;2023-04-07T07:12:32;17.42;;;9.82;;
11685;SDS011;5899;51.282;6.094;2023-04-07T07:15:28;14.63;;;9.57;;
11685;SDS011;5899;51.282;6.094;2023-04-07T07:18:24;15.53;;;9.57;;
11685;SDS011;5899;51.282;6.094;2023-04-07T07:20:50;16.15;;;9.27;;
11685;SDS011;5899;51.282;6.094;2023-04-07T07:23:32;15.98;;;9.15;;
11685;SDS011;5899;51.282;6.094;2023-04-07T07:26:07;16.08;;;10.20;;
11685;SDS011;5899;51.282;6.094;2023-04-07T07:28:41;13.77;;;9.27;;
11685;SDS011;5899;51.282;6.094;2023-04-07T07:31:21;15.52;;;10.43;;
11685;SDS011;5899;51.282;6.094;2023-04-07T07:33:53;17.00;;;10.32;;
11685;SDS011;5899;51.282;6.094;2023-04-07T07:36:25;16.17;;;11.00;;
11685;SDS011;5899;51.282;6.094;2023-04-07T07:39:06;14.90;;;9.48;;
11685;SDS011;5899;51.282;6.094;2023-04-07T07:41:39;18.27;;;9.63;;
11685;SDS011;5899;51.282;6.094;2023-04-07T07:46:58;15.63;;;9.30;;
11685;SDS011;5899;51.282;6.094;2023-04-07T07:49:31;13.93;;;9.18;;
11685;SDS011;5899;51.282;6.094;2023-04-07T07:51:58;16.42;;;10.43;;
11685;SDS011;5899;51.282;6.094;2023-04-07T07:54:33;18.25;;;10.18;;
11685;SDS011;5899;51.282;6.094;2023-04-07T07:57:05;16.50;;;9.65;;
11685;SDS011;5899;51.282;6.094;2023-04-07T07:59:53;16.38;;;9.57;;
11685;SDS011;5899;51.282;6.094;2023-04-07T08:02:21;14.25;;;9.60;;
11685;SDS011;5899;51.282;6.094;2023-04-07T08:08:16;11.48;;;8.45;;
11685;SDS011;5899;51.282;6.094;2023-04-07T08:11:03;10.57;;;7.68;;
11685;SDS011;5899;51.282;6.094;2023-04-07T08:14:01;14.18;;;9.65;;
11685;SDS011;5899;51.282;6.094;2023-04-07T08:16:42;12.35;;;8.20;;
11685;SDS011;5899;51.282;6.094;2023-04-07T08:19:19;14.97;;;8.77;;
11685;SDS011;5899;51.282;6.094;2023-04-07T08:21:46;10.10;;;7.53;;
11685;SDS011;5899;51.282;6.094;2023-04-07T08:24:21;13.93;;;9.25;;
11685;SDS011;5899;51.282;6.094;2023-04-07T08:27:21;16.10;;;9.33;;
11685;SDS011;5899;51.282;6.094;2023-04-07T08:29:53;16.13;;;10.32;;
11685;SDS011;5899;51.282;6.094;2023-04-07T08:32:43;14.43;;;7.73;;
11685;SDS011;5899;51.282;6.094;2023-04-07T08:38:27;9.40;;;6.25;;
11685;SDS011;5899;51.282;6.094;2023-04-07T08:40:57;9.00;;;6.17;;
11685;SDS011;5899;51.282;6.094;2023-04-07T08:43:41;7.82;;;5.30;;
11685;SDS011;5899;51.282;6.094;2023-04-07T08:49:03;8.68;;;5.47;;
11685;SDS011;5899;51.282;6.094;2023-04-07T08:51:41;6.18;;;4.80;;
11685;SDS011;5899;51.282;6.094;2023-04-07T08:54:25;7.70;;;5.47;;
11685;SDS011;5899;51.282;6.094;2023-04-07T08:56:54;7.65;;;6.03;;
11685;SDS011;5899;51.282;6.094;2023-04-07T08:59:23;9.93;;;5.50;;
11685;SDS011;5899;51.282;6.094;2023-04-07T09:02:03;9.07;;;5.40;;
11685;SDS011;5899;51.282;6.094;2023-04-07T09:04:44;10.23;;;5.75;;
11685;SDS011;5899;51.282;6.094;2023-04-07T09:07:27;9.25;;;5.88;;
11685;SDS011;5899;51.282;6.094;2023-04-07T09:10:08;10.82;;;5.60;;
11685;SDS011;5899;51.282;6.094;2023-04-07T09:12:42;7.85;;;5.70;;
11685;SDS011;5899;51.282;6.094;2023-04-07T09:15:30;8.45;;;6.18;;
11685;SDS011;5899;51.282;6.094;2023-04-07T09:18:24;7.97;;;6.05;;
11685;SDS011;5899;51.282;6.094;2023-04-07T09:20:57;8.47;;;6.17;;
11685;SDS011;5899;51.282;6.094;2023-04-07T09:23:41;9.07;;;6.13;;
11685;SDS011;5899;51.282;6.094;2023-04-07T09:26:31;7.15;;;5.30;;
11685;SDS011;5899;51.282;6.094;2023-04-07T09:29:45;8.80;;;5.68;;
11685;SDS011;5899;51.282;6.094;2023-04-07T09:32:33;9.73;;;5.97;;
11685;SDS011;5899;51.282;6.094;2023-04-07T09:35:28;9.35;;;6.30;;
11685;SDS011;5899;51.282;6.094;2023-04-07T09:38:07;6.70;;;5.30;;
11685;SDS011;5899;51.282;6.094;2023-04-07T09:40:55;7.97;;;5.07;;
11685;SDS011;5899;51.282;6.094;2023-04-07T09:43:43;9.20;;;6.65;;
11685;SDS011;5899;51.282;6.094;2023-04-07T09:46:54;11.40;;;8.95;;
11685;SDS011;5899;51.282;6.094;2023-04-07T09:49:30;16.38;;;9.57;;
11685;SDS011;5899;51.282;6.094;2023-04-07T09:52:02;13.50;;;9.60;;
11685;SDS011;5899;51.282;6.094;2023-04-07T09:54:51;14.13;;;9.27;;
11685;SDS011;5899;51.282;6.094;2023-04-07T09:57:20;15.48;;;9.63;;
11685;SDS011;5899;51.282;6.094;2023-04-07T10:00:05;13.43;;;9.07;;
11685;SDS011;5899;51.282;6.094;2023-04-07T10:02:36;12.43;;;8.88;;
11685;SDS011;5899;51.282;6.094;2023-04-07T10:05:15;13.10;;;9.20;;
11685;SDS011;5899;51.282;6.094;2023-04-07T10:07:50;15.05;;;8.73;;
11685;SDS011;5899;51.282;6.094;2023-04-07T10:13:34;13.00;;;8.68;;
11685;SDS011;5899;51.282;6.094;2023-04-07T10:17:09;14.15;;;9.02;;
11685;SDS011;5899;51.282;6.094;2023-04-07T10:19:16;15.00;;;9.55;;
11685;SDS011;5899;51.282;6.094;2023-04-07T10:22:00;14.88;;;9.23;;
11685;SDS011;5899;51.282;6.094;2023-04-07T10:24:50;13.18;;;8.63;;
11685;SDS011;5899;51.282;6.094;2023-04-07T10:27:33;15.07;;;8.63;;
11685;SDS011;5899;51.282;6.094;2023-04-07T10:42:45;12.40;;;8.88;;
11685;SDS011;5899;51.282;6.094;2023-04-07T10:48:20;9.63;;;6.72;;
11685;SDS011;5899;51.282;6.094;2023-04-07T11:08:57;6.38;;;5.03;;
11685;SDS011;5899;51.282;6.094;2023-04-07T11:11:38;6.10;;;4.70;;
11685;SDS011;5899;51.282;6.094;2023-04-07T11:14:12;6.32;;;5.25;;
11685;SDS011;5899;51.282;6.094;2023-04-07T11:17:01;6.10;;;4.10;;
11685;SDS011;5899;51.282;6.094;2023-04-07T11:20:54;6.65;;;4.15;;
11685;SDS011;5899;51.282;6.094;2023-04-07T11:23:39;4.97;;;4.20;;
11685;SDS011;5899;51.282;6.094;2023-04-07T11:28:49;7.57;;;4.15;;
11685;SDS011;5899;51.282;6.094;2023-04-07T11:31:26;5.97;;;4.57;;
11685;SDS011;5899;51.282;6.094;2023-04-07T11:34:28;5.50;;;4.32;;
11685;SDS011;5899;51.282;6.094;2023-04-07T11:37:19;7.47;;;4.73;;
11685;SDS011;5899;51.282;6.094;2023-04-07T11:39:53;7.38;;;4.57;;
11685;SDS011;5899;51.282;6.094;2023-04-07T11:42:38;6.82;;;4.20;;
11685;SDS011;5899;51.282;6.094;2023-04-07T11:48:37;7.65;;;4.28;;
11685;SDS011;5899;51.282;6.094;2023-04-07T11:51:05;6.45;;;4.30;;
11685;SDS011;5899;51.282;6.094;2023-04-07T11:53:54;6.68;;;4.75;;
11685;SDS011;5899;51.282;6.094;2023-04-07T11:59:19;7.75;;;4.63;;
11685;SDS011;5899;51.282;6.094;2023-04-07T12:02:33;6.60;;;4.25;;
11685;SDS011;5899;51.282;6.094;2023-04-07T12:08:08;6.93;;;3.95;;
11685;SDS011;5899;51.282;6.094;2023-04-07T12:10:37;6.90;;;3.70;;
11685;SDS011;5899;51.282;6.094;2023-04-07T12:16:14;6.20;;;3.50;;
11685;SDS011;5899;51.282;6.094;2023-04-07T12:24:32;5.60;;;3.53;;
11685;SDS011;5899;51.282;6.094;2023-04-07T12:27:11;5.55;;;3.65;;
11685;SDS011;5899;51.282;6.094;2023-04-07T12:29:44;7.25;;;3.30;;
11685;SDS011;5899;51.282;6.094;2023-04-07T12:32:34;5.93;;;2.90;;
11685;SDS011;5899;51.282;6.094;2023-04-07T12:35:35;7.18;;;3.25;;
11685;SDS011;5899;51.282;6.094;2023-04-07T12:38:21;5.53;;;3.40;;
11685;SDS011;5899;51.282;6.094;2023-04-07T12:41:01;5.28;;;2.95;;
11685;SDS011;5899;51.282;6.094;2023-04-07T12:43:50;4.35;;;2.83;;
11685;SDS011;5899;51.282;6.094;2023-04-07T12:46:36;5.45;;;2.88;;
11685;SDS011;5899;51.282;6.094;2023-04-07T12:49:21;5.80;;;3.40;;
11685;SDS011;5899;51.282;6.094;2023-04-07T12:52:11;5.20;;;3.35;;
11685;SDS011;5899;51.282;6.094;2023-04-07T12:54:59;6.30;;;3.47;;
11685;SDS011;5899;51.282;6.094;2023-04-07T12:57:52;4.13;;;3.00;;
11685;SDS011;5899;51.282;6.094;2023-04-07T13:00:33;3.85;;;2.90;;
11685;SDS011;5899;51.282;6.094;2023-04-07T13:03:21;6.57;;;3.25;;
11685;SDS011;5899;51.282;6.094;2023-04-07T13:05:55;5.43;;;3.03;;
11685;SDS011;5899;51.282;6.094;2023-04-07T13:08:25;5.90;;;3.15;;
11685;SDS011;5899;51.282;6.094;2023-04-07T13:11:29;3.85;;;3.05;;
11685;SDS011;5899;51.282;6.094;2023-04-07T13:14:23;3.80;;;3.20;;
11685;SDS011;5899;51.282;6.094;2023-04-07T13:16:52;4.20;;;3.13;;
11685;SDS011;5899;51.282;6.094;2023-04-07T13:19:34;5.55;;;3.20;;
11685;SDS011;5899;51.282;6.094;2023-04-07T13:22:28;4.78;;;3.20;;
11685;SDS011;5899;51.282;6.094;2023-04-07T13:25:26;5.82;;;3.35;;
11685;SDS011;5899;51.282;6.094;2023-04-07T13:27:58;4.13;;;3.20;;
11685;SDS011;5899;51.282;6.094;2023-04-07T13:33:40;5.03;;;3.30;;
11685;SDS011;5899;51.282;6.094;2023-04-07T13:41:58;8.20;;;3.55;;
11685;SDS011;5899;51.282;6.094;2023-04-07T13:44:29;7.45;;;3.92;;
11685;SDS011;5899;51.282;6.094;2023-04-07T13:47:11;6.97;;;3.47;;
11685;SDS011;5899;51.282;6.094;2023-04-07T13:58:57;7.07;;;4.20;;
11685;SDS011;5899;51.282;6.094;2023-04-07T14:04:48;6.20;;;4.10;;
11685;SDS011;5899;51.282;6.094;2023-04-07T14:07:50;8.13;;;3.80;;
11685;SDS011;5899;51.282;6.094;2023-04-07T14:10:29;7.90;;;3.97;;
11685;SDS011;5899;51.282;6.094;2023-04-07T14:15:58;5.88;;;4.35;;
11685;SDS011;5899;51.282;6.094;2023-04-07T14:24:59;5.43;;;4.20;;
11685;SDS011;5899;51.282;6.094;2023-04-07T14:27:46;6.10;;;3.30;;
11685;SDS011;5899;51.282;6.094;2023-04-07T14:30:40;5.65;;;4.05;;
11685;SDS011;5899;51.282;6.094;2023-04-07T14:33:51;5.70;;;3.67;;
11685;SDS011;5899;51.282;6.094;2023-04-07T14:36:26;6.00;;;3.40;;
11685;SDS011;5899;51.282;6.094;2023-04-07T14:39:43;4.57;;;3.30;;
11685;SDS011;5899;51.282;6.094;2023-04-07T15:15:35;6.32;;;3.55;;
11685;SDS011;5899;51.282;6.094;2023-04-07T15:21:28;5.18;;;3.00;;
11685;SDS011;5899;51.282;6.094;2023-04-07T15:27:30;4.25;;;3.25;;
11685;SDS011;5899;51.282;6.094;2023-04-07T15:33:19;6.13;;;3.05;;
11685;SDS011;5899;51.282;6.094;2023-04-07T15:36:18;7.13;;;3.78;;
11685;SDS011;5899;51.282;6.094;2023-04-07T15:40:01;7.77;;;4.17;;
11685;SDS011;5899;51.282;6.094;2023-04-07T15:44:10;8.48;;;3.85;;
11685;SDS011;5899;51.282;6.094;2023-04-07T15:47:46;7.88;;;3.83;;
11685;SDS011;5899;51.282;6.094;2023-04-07T16:13:59;9.20;;;3.93;;
11685;SDS011;5899;51.282;6.094;2023-04-07T16:16:44;8.57;;;3.58;;
11685;SDS011;5899;51.282;6.094;2023-04-07T16:19:26;6.63;;;3.78;;
11685;SDS011;5899;51.282;6.094;2023-04-07T16:22:16;7.88;;;3.80;;
11685;SDS011;5899;51.282;6.094;2023-04-07T16:25:59;7.47;;;3.50;;
11685;SDS011;5899;51.282;6.094;2023-04-07T16:28:00;7.97;;;3.38;;
11685;SDS011;5899;51.282;6.094;2023-04-07T16:33:20;7.70;;;3.45;;
11685;SDS011;5899;51.282;6.094;2023-04-07T16:35:51;9.90;;;3.88;;
11685;SDS011;5899;51.282;6.094;2023-04-07T16:38:31;6.05;;;3.53;;
11685;SDS011;5899;51.282;6.094;2023-04-07T16:41:20;7.35;;;3.70;;
11685;SDS011;5899;51.282;6.094;2023-04-07T16:46:51;6.47;;;4.00;;
11685;SDS011;5899;51.282;6.094;2023-04-07T16:49:28;5.13;;;3.33;;
11685;SDS011;5899;51.282;6.094;2023-04-07T16:52:11;7.15;;;3.95;;
11685;SDS011;5899;51.282;6.094;2023-04-07T16:54:46;9.45;;;3.85;;
11685;SDS011;5899;51.282;6.094;2023-04-07T16:57:36;8.20;;;3.67;;
11685;SDS011;5899;51.282;6.094;2023-04-07T17:00:17;10.10;;;3.28;;
11685;SDS011;5899;51.282;6.094;2023-04-07T17:02:49;5.87;;;3.37;;
11685;SDS011;5899;51.282;6.094;2023-04-07T17:05:23;6.97;;;4.00;;
11685;SDS011;5899;51.282;6.094;2023-04-07T17:08:20;8.73;;;3.97;;
11685;SDS011;5899;51.282;6.094;2023-04-07T17:11:02;7.25;;;3.60;;
11685;SDS011;5899;51.282;6.094;2023-04-07T17:13:53;5.93;;;3.28;;
11685;SDS011;5899;51.282;6.094;2023-04-07T17:26:18;6.28;;;3.63;;
11685;SDS011;5899;51.282;6.094;2023-04-07T17:31:45;7.63;;;3.53;;
11685;SDS011;5899;51.282;6.094;2023-04-07T17:34:19;6.13;;;3.88;;
11685;SDS011;5899;51.282;6.094;2023-04-07T17:37:11;6.45;;;2.95;;
11685;SDS011;5899;51.282;6.094;2023-04-07T17:40:42;5.90;;;3.15;;
11685;SDS011;5899;51.282;6.094;2023-04-07T17:43:10;6.95;;;3.13;;
11685;SDS011;5899;51.282;6.094;2023-04-07T17:45:51;6.22;;;3.67;;
11685;SDS011;5899;51.282;6.094;2023-04-07T17:48:23;7.65;;;3.72;;
11685;SDS011;5899;51.282;6.094;2023-04-07T17:54:11;6.18;;;3.20;;
11685;SDS011;5899;51.282;6.094;2023-04-07T17:56:45;10.15;;;3.47;;
11685;SDS011;5899;51.282;6.094;2023-04-07T18:05:18;6.70;;;3.72;;
11685;SDS011;5899;51.282;6.094;2023-04-07T18:10:55;8.18;;;4.20;;
11685;SDS011;5899;51.282;6.094;2023-04-07T18:13:36;6.40;;;4.15;;
11685;SDS011;5899;51.282;6.094;2023-04-07T18:16:03;8.43;;;4.30;;
11685;SDS011;5899;51.282;6.094;2023-04-07T18:24:34;8.15;;;4.60;;
11685;SDS011;5899;51.282;6.094;2023-04-07T18:27:11;6.65;;;4.00;;
11685;SDS011;5899;51.282;6.094;2023-04-07T18:30:06;10.73;;;5.25;;
11685;SDS011;5899;51.282;6.094;2023-04-07T18:32:45;10.07;;;3.95;;
11685;SDS011;5899;51.282;6.094;2023-04-07T18:35:45;8.50;;;4.10;;
11685;SDS011;5899;51.282;6.094;2023-04-07T18:38:40;7.30;;;4.35;;
11685;SDS011;5899;51.282;6.094;2023-04-07T18:41:14;8.05;;;4.72;;
11685;SDS011;5899;51.282;6.094;2023-04-07T18:44:01;5.65;;;4.35;;
11685;SDS011;5899;51.282;6.094;2023-04-07T18:47:01;6.65;;;3.92;;
11685;SDS011;5899;51.282;6.094;2023-04-07T18:52:19;7.15;;;4.07;;
11685;SDS011;5899;51.282;6.094;2023-04-07T18:55:31;7.35;;;4.70;;
11685;SDS011;5899;51.282;6.094;2023-04-07T19:03:39;6.93;;;4.90;;
11685;SDS011;5899;51.282;6.094;2023-04-07T19:06:49;9.63;;;4.73;;
11685;SDS011;5899;51.282;6.094;2023-04-07T19:09:17;8.18;;;4.82;;
11685;SDS011;5899;51.282;6.094;2023-04-07T19:12:06;8.75;;;4.97;;
11685;SDS011;5899;51.282;6.094;2023-04-07T19:15:06;7.75;;;5.05;;
11685;SDS011;5899;51.282;6.094;2023-04-07T19:17:32;7.03;;;4.93;;
11685;SDS011;5899;51.282;6.094;2023-04-07T19:20:13;8.23;;;5.07;;
11685;SDS011;5899;51.282;6.094;2023-04-07T19:23:07;6.22;;;5.07;;
11685;SDS011;5899;51.282;6.094;2023-04-07T19:25:45;6.78;;;4.68;;
11685;SDS011;5899;51.282;6.094;2023-04-07T19:31:12;7.80;;;4.50;;
11685;SDS011;5899;51.282;6.094;2023-04-07T19:33:45;8.27;;;4.95;;
11685;SDS011;5899;51.282;6.094;2023-04-07T19:36:25;7.07;;;5.05;;
11685;SDS011;5899;51.282;6.094;2023-04-07T19:39:08;6.80;;;4.78;;
11685;SDS011;5899;51.282;6.094;2023-04-07T19:41:43;7.47;;;5.13;;
11685;SDS011;5899;51.282;6.094;2023-04-07T19:44:31;7.72;;;5.13;;
11685;SDS011;5899;51.282;6.094;2023-04-07T19:47:16;10.10;;;5.63;;
11685;SDS011;5899;51.282;6.094;2023-04-07T19:49:49;6.78;;;5.57;;
11685;SDS011;5899;51.282;6.094;2023-04-07T19:52:47;9.30;;;6.38;;
11685;SDS011;5899;51.282;6.094;2023-04-07T19:58:21;8.73;;;5.80;;
11685;SDS011;5899;51.282;6.094;2023-04-07T20:01:32;9.70;;;6.10;;
11685;SDS011;5899;51.282;6.094;2023-04-07T20:04:29;8.95;;;5.53;;
11685;SDS011;5899;51.282;6.094;2023-04-07T20:07:13;8.15;;;5.28;;
11685;SDS011;5899;51.282;6.094;2023-04-07T20:12:45;7.93;;;4.93;;
11685;SDS011;5899;51.282;6.094;2023-04-07T20:18:18;9.00;;;5.13;;
11685;SDS011;5899;51.282;6.094;2023-04-07T20:21:01;7.03;;;5.10;;
11685;SDS011;5899;51.282;6.094;2023-04-07T20:23:32;8.25;;;5.45;;
11685;SDS011;5899;51.282;6.094;2023-04-07T20:26:15;9.63;;;5.50;;
11685;SDS011;5899;51.282;6.094;2023-04-07T20:28:57;8.20;;;5.68;;
11685;SDS011;5899;51.282;6.094;2023-04-07T20:31:57;6.40;;;5.35;;
11685;SDS011;5899;51.282;6.094;2023-04-07T20:34:31;7.70;;;4.70;;
11685;SDS011;5899;51.282;6.094;2023-04-07T20:40:30;7.53;;;5.43;;
11685;SDS011;5899;51.282;6.094;2023-04-07T20:43:08;9.85;;;5.40;;
11685;SDS011;5899;51.282;6.094;2023-04-07T20:48:30;9.80;;;6.60;;
11685;SDS011;5899;51.282;6.094;2023-04-07T20:51:05;7.65;;;6.70;;
11685;SDS011;5899;51.282;6.094;2023-04-07T20:53:37;9.30;;;6.30;;
11685;SDS011;5899;51.282;6.094;2023-04-07T20:56:13;10.18;;;6.70;;
11685;SDS011;5899;51.282;6.094;2023-04-07T20:58:44;9.50;;;7.20;;
11685;SDS011;5899;51.282;6.094;2023-04-07T21:01:15;10.70;;;6.75;;
11685;SDS011;5899;51.282;6.094;2023-04-07T21:04:08;14.25;;;8.02;;
11685;SDS011;5899;51.282;6.094;2023-04-07T21:06:53;8.75;;;6.93;;
11685;SDS011;5899;51.282;6.094;2023-04-07T21:09:26;10.10;;;6.83;;
11685;SDS011;5899;51.282;6.094;2023-04-07T21:15:02;8.65;;;6.53;;
11685;SDS011;5899;51.282;6.094;2023-04-07T21:18:01;12.43;;;7.05;;
11685;SDS011;5899;51.282;6.094;2023-04-07T21:20:50;8.57;;;6.32;;
11685;SDS011;5899;51.282;6.094;2023-04-07T21:23:33;8.55;;;6.38;;
11685;SDS011;5899;51.282;6.094;2023-04-07T21:29:04;8.83;;;5.90;;
11685;SDS011;5899;51.282;6.094;2023-04-07T21:31:36;10.15;;;6.55;;
11685;SDS011;5899;51.282;6.094;2023-04-07T21:34:06;10.38;;;6.95;;
11685;SDS011;5899;51.282;6.094;2023-04-07T21:39:40;9.17;;;6.87;;
11685;SDS011;5899;51.282;6.094;2023-04-07T21:42:23;9.77;;;7.20;;
11685;SDS011;5899;51.282;6.094;2023-04-07T21:45:01;11.25;;;7.20;;
11685;SDS011;5899;51.282;6.094;2023-04-07T21:47:38;11.45;;;7.68;;